sensor_id;sensor_type;location;lat;lon;timestamp;P1;durP1;ratioP1;P2;durP2;ratioP2
23594;SDS011;11975;47.674;9.472;2023-07-28T00:01:34;1999.90;;;999.90;;
23594;SDS011;11975;47.674;9.472;2023-07-28T00:04:00;1999.90;;;999.90;;
23594;SDS011;11975;47.674;9.472;2023-07-28T00:06:29;1999.90;;;999.90;;
23594;SDS011;11975;47.674;9.472;2023-07-28T00:08:55;1999.90;;;999.90;;
23594;SDS011;11975;47.674;9.472;2023-07-28T00:11:21;1999.90;;;999.90;;
23594;SDS011;11975;47.674;9.472;2023-07-28T00:13:47;1999.90;;;999.90;;
23594;SDS011;11975;47.674;9.472;2023-07-28T00:16:13;1999.90;;;999.90;;
23594;SDS011;11975;47.674;9.472;2023-07-28T00:18:39;1999.90;;;999.90;;
23594;SDS011;11975;47.674;9.472;2023-07-28T00:21:05;1999.90;;;999.90;;
23594;SDS011;11975;47.674;9.472;2023-07-28T00:23:31;1999.90;;;999.90;;
23594;SDS011;11975;47.674;9.472;2023-07-28T00:25:57;1999.90;;;999.90;;
23594;SDS011;11975;47.674;9.472;2023-07-28T00:28:23;1999.90;;;999.90;;
23594;SDS011;11975;47.674;9.472;2023-07-28T00:30:49;1999.90;;;999.90;;
23594;SDS011;11975;47.674;9.472;2023-07-28T00:33:16;1999.90;;;999.90;;
23594;SDS011;11975;47.674;9.472;2023-07-28T00:35:42;1999.90;;;999.90;;
23594;SDS011;11975;47.674;9.472;2023-07-28T00:38:08;1999.90;;;999.90;;
23594;SDS011;11975;47.674;9.472;2023-07-28T00:40:35;1999.90;;;999.90;;
23594;SDS011;11975;47.674;9.472;2023-07-28T00:43:01;1999.90;;;999.90;;
23594;SDS011;11975;47.674;9.472;2023-07-28T00:45:27;1999.90;;;999.90;;
23594;SDS011;11975;47.674;9.472;2023-07-28T00:47:54;1999.90;;;999.90;;
23594;SDS011;11975;47.674;9.472;2023-07-28T00:50:23;1999.90;;;999.90;;
23594;SDS011;11975;47.674;9.472;2023-07-28T00:52:49;1999.90;;;999.90;;
23594;SDS011;11975;47.674;9.472;2023-07-28T00:55:16;1999.90;;;999.90;;
23594;SDS011;11975;47.674;9.472;2023-07-28T00:57:42;1999.90;;;999.90;;
23594;SDS011;11975;47.674;9.472;2023-07-28T01:00:09;1999.90;;;999.90;;
23594;SDS011;11975;47.674;9.472;2023-07-28T01:05:01;1999.90;;;999.90;;
23594;SDS011;11975;47.674;9.472;2023-07-28T01:07:38;1999.90;;;999.90;;
23594;SDS011;11975;47.674;9.472;2023-07-28T01:10:14;1999.90;;;999.90;;
23594;SDS011;11975;47.674;9.472;2023-07-28T01:12:44;1999.90;;;999.90;;
23594;SDS011;11975;47.674;9.472;2023-07-28T01:15:10;1999.90;;;999.90;;
23594;SDS011;11975;47.674;9.472;2023-07-28T01:17:36;1999.90;;;999.90;;
23594;SDS011;11975;47.674;9.472;2023-07-28T01:20:02;1999.90;;;999.90;;
23594;SDS011;11975;47.674;9.472;2023-07-28T01:25:32;1999.90;;;999.90;;
23594;SDS011;11975;47.674;9.472;2023-07-28T01:28:05;1999.90;;;999.90;;
23594;SDS011;11975;47.674;9.472;2023-07-28T01:30:31;1999.90;;;999.90;;
23594;SDS011;11975;47.674;9.472;2023-07-28T01:32:57;1999.90;;;999.90;;
23594;SDS011;11975;47.674;9.472;2023-07-28T01:35:23;1999.90;;;999.90;;
23594;SDS011;11975;47.674;9.472;2023-07-28T01:37:51;1999.90;;;999.90;;
23594;SDS011;11975;47.674;9.472;2023-07-28T01:40:17;1999.90;;;999.90;;
23594;SDS011;11975;47.674;9.472;2023-07-28T01:42:43;1999.90;;;999.90;;
23594;SDS011;11975;47.674;9.472;2023-07-28T01:45:09;1999.90;;;999.90;;
23594;SDS011;11975;47.674;9.472;2023-07-28T01:47:35;1999.90;;;999.90;;
23594;SDS011;11975;47.674;9.472;2023-07-28T01:50:01;1999.90;;;999.90;;
23594;SDS011;11975;47.674;9.472;2023-07-28T01:52:27;1999.90;;;999.90;;
23594;SDS011;11975;47.674;9.472;2023-07-28T01:54:53;1999.90;;;999.90;;
23594;SDS011;11975;47.674;9.472;2023-07-28T01:57:19;1999.90;;;999.90;;
23594;SDS011;11975;47.674;9.472;2023-07-28T01:59:45;1999.90;;;999.90;;
23594;SDS011;11975;47.674;9.472;2023-07-28T02:02:11;1999.90;;;999.90;;
23594;SDS011;11975;47.674;9.472;2023-07-28T02:04:37;1999.90;;;999.90;;
23594;SDS011;11975;47.674;9.472;2023-07-28T02:07:03;1999.90;;;999.90;;
23594;SDS011;11975;47.674;9.472;2023-07-28T02:09:29;1999.90;;;999.90;;
23594;SDS011;11975;47.674;9.472;2023-07-28T02:11:55;1999.90;;;999.90;;
23594;SDS011;11975;47.674;9.472;2023-07-28T02:14:21;1999.90;;;999.90;;
23594;SDS011;11975;47.674;9.472;2023-07-28T02:16:47;1999.90;;;999.90;;
23594;SDS011;11975;47.674;9.472;2023-07-28T02:19:13;1999.90;;;999.90;;
23594;SDS011;11975;47.674;9.472;2023-07-28T02:21:39;1999.90;;;999.90;;
23594;SDS011;11975;47.674;9.472;2023-07-28T02:24:05;1999.90;;;999.90;;
23594;SDS011;11975;47.674;9.472;2023-07-28T02:26:31;1999.90;;;999.90;;
23594;SDS011;11975;47.674;9.472;2023-07-28T02:28:57;1999.90;;;999.90;;
23594;SDS011;11975;47.674;9.472;2023-07-28T02:31:23;1999.90;;;999.90;;
23594;SDS011;11975;47.674;9.472;2023-07-28T02:33:49;1999.90;;;999.90;;
23594;SDS011;11975;47.674;9.472;2023-07-28T02:36:15;1999.90;;;999.90;;
23594;SDS011;11975;47.674;9.472;2023-07-28T02:38:41;1999.90;;;999.90;;
23594;SDS011;11975;47.674;9.472;2023-07-28T02:41:07;1999.90;;;999.90;;
23594;SDS011;11975;47.674;9.472;2023-07-28T02:43:32;1999.90;;;999.90;;
23594;SDS011;11975;47.674;9.472;2023-07-28T02:45:59;1999.90;;;999.90;;
23594;SDS011;11975;47.674;9.472;2023-07-28T02:48:26;1999.90;;;999.90;;
23594;SDS011;11975;47.674;9.472;2023-07-28T02:50:52;1999.90;;;999.90;;
23594;SDS011;11975;47.674;9.472;2023-07-28T02:53:18;1999.90;;;999.90;;
23594;SDS011;11975;47.674;9.472;2023-07-28T02:55:45;1999.90;;;999.90;;
23594;SDS011;11975;47.674;9.472;2023-07-28T02:58:12;1999.90;;;999.90;;
23594;SDS011;11975;47.674;9.472;2023-07-28T03:00:38;1999.90;;;999.90;;
23594;SDS011;11975;47.674;9.472;2023-07-28T03:03:08;1999.90;;;999.90;;
23594;SDS011;11975;47.674;9.472;2023-07-28T03:05:38;1999.90;;;999.90;;
23594;SDS011;11975;47.674;9.472;2023-07-28T03:08:04;1999.90;;;999.90;;
23594;SDS011;11975;47.674;9.472;2023-07-28T03:10:31;1999.90;;;999.90;;
23594;SDS011;11975;47.674;9.472;2023-07-28T03:12:57;1999.90;;;999.90;;
23594;SDS011;11975;47.674;9.472;2023-07-28T03:15:23;1999.90;;;999.90;;
23594;SDS011;11975;47.674;9.472;2023-07-28T03:17:50;1999.90;;;999.90;;
23594;SDS011;11975;47.674;9.472;2023-07-28T03:20:16;1999.90;;;999.90;;
23594;SDS011;11975;47.674;9.472;2023-07-28T03:22:42;1999.90;;;999.90;;
23594;SDS011;11975;47.674;9.472;2023-07-28T03:25:09;1999.90;;;999.90;;
23594;SDS011;11975;47.674;9.472;2023-07-28T03:27:35;1999.90;;;999.90;;
23594;SDS011;11975;47.674;9.472;2023-07-28T03:30:01;1999.90;;;999.90;;
23594;SDS011;11975;47.674;9.472;2023-07-28T03:32:27;1999.90;;;999.90;;
23594;SDS011;11975;47.674;9.472;2023-07-28T03:34:53;1999.90;;;999.90;;
23594;SDS011;11975;47.674;9.472;2023-07-28T03:37:19;1999.90;;;999.90;;
23594;SDS011;11975;47.674;9.472;2023-07-28T03:39:45;1999.90;;;999.90;;
23594;SDS011;11975;47.674;9.472;2023-07-28T03:42:10;1999.90;;;999.90;;
23594;SDS011;11975;47.674;9.472;2023-07-28T03:44:37;1999.90;;;999.90;;
23594;SDS011;11975;47.674;9.472;2023-07-28T03:47:07;1999.90;;;999.90;;
23594;SDS011;11975;47.674;9.472;2023-07-28T03:49:33;1999.90;;;999.90;;
23594;SDS011;11975;47.674;9.472;2023-07-28T03:51:59;1999.90;;;999.90;;
23594;SDS011;11975;47.674;9.472;2023-07-28T03:54:25;1999.90;;;999.90;;
23594;SDS011;11975;47.674;9.472;2023-07-28T03:56:52;1999.90;;;999.90;;
23594;SDS011;11975;47.674;9.472;2023-07-28T03:59:18;1999.90;;;999.90;;
23594;SDS011;11975;47.674;9.472;2023-07-28T04:01:44;1999.90;;;999.90;;
23594;SDS011;11975;47.674;9.472;2023-07-28T04:04:11;1999.90;;;999.90;;
23594;SDS011;11975;47.674;9.472;2023-07-28T04:06:46;1999.90;;;999.90;;
23594;SDS011;11975;47.674;9.472;2023-07-28T04:09:14;1999.90;;;999.90;;
23594;SDS011;11975;47.674;9.472;2023-07-28T04:11:41;1999.90;;;999.90;;
23594;SDS011;11975;47.674;9.472;2023-07-28T04:14:07;1999.90;;;999.90;;
23594;SDS011;11975;47.674;9.472;2023-07-28T04:16:33;1999.90;;;999.90;;
23594;SDS011;11975;47.674;9.472;2023-07-28T04:18:59;1999.90;;;999.90;;
23594;SDS011;11975;47.674;9.472;2023-07-28T04:21:25;1999.90;;;999.90;;
23594;SDS011;11975;47.674;9.472;2023-07-28T04:23:51;1999.90;;;999.90;;
23594;SDS011;11975;47.674;9.472;2023-07-28T04:26:17;1999.90;;;999.90;;
23594;SDS011;11975;47.674;9.472;2023-07-28T04:28:43;1999.90;;;999.90;;
23594;SDS011;11975;47.674;9.472;2023-07-28T04:31:10;1999.90;;;999.90;;
23594;SDS011;11975;47.674;9.472;2023-07-28T04:33:36;1999.90;;;999.90;;
23594;SDS011;11975;47.674;9.472;2023-07-28T04:36:02;1999.90;;;999.90;;
23594;SDS011;11975;47.674;9.472;2023-07-28T04:38:28;1999.90;;;999.90;;
23594;SDS011;11975;47.674;9.472;2023-07-28T04:40:54;1999.90;;;999.90;;
23594;SDS011;11975;47.674;9.472;2023-07-28T04:43:20;1999.90;;;999.90;;
23594;SDS011;11975;47.674;9.472;2023-07-28T04:45:46;1999.90;;;999.90;;
23594;SDS011;11975;47.674;9.472;2023-07-28T04:48:12;1999.90;;;999.90;;
23594;SDS011;11975;47.674;9.472;2023-07-28T04:50:38;1999.90;;;999.90;;
23594;SDS011;11975;47.674;9.472;2023-07-28T04:53:04;1999.90;;;999.90;;
23594;SDS011;11975;47.674;9.472;2023-07-28T04:55:30;1999.90;;;999.90;;
23594;SDS011;11975;47.674;9.472;2023-07-28T04:57:56;1999.90;;;999.90;;
23594;SDS011;11975;47.674;9.472;2023-07-28T05:00:22;1999.90;;;999.90;;
23594;SDS011;11975;47.674;9.472;2023-07-28T05:02:48;1999.90;;;999.90;;
23594;SDS011;11975;47.674;9.472;2023-07-28T05:05:15;1999.90;;;999.90;;
23594;SDS011;11975;47.674;9.472;2023-07-28T05:07:41;1999.90;;;999.90;;
23594;SDS011;11975;47.674;9.472;2023-07-28T05:10:07;1999.90;;;999.90;;
23594;SDS011;11975;47.674;9.472;2023-07-28T05:12:33;1999.90;;;999.90;;
23594;SDS011;11975;47.674;9.472;2023-07-28T05:14:59;1999.90;;;999.90;;
23594;SDS011;11975;47.674;9.472;2023-07-28T05:17:25;1999.90;;;999.90;;
23594;SDS011;11975;47.674;9.472;2023-07-28T05:19:51;1999.90;;;999.90;;
23594;SDS011;11975;47.674;9.472;2023-07-28T05:22:17;1999.90;;;999.90;;
23594;SDS011;11975;47.674;9.472;2023-07-28T05:24:44;1999.90;;;999.90;;
23594;SDS011;11975;47.674;9.472;2023-07-28T05:27:10;1999.90;;;999.90;;
23594;SDS011;11975;47.674;9.472;2023-07-28T05:29:37;1999.90;;;999.90;;
23594;SDS011;11975;47.674;9.472;2023-07-28T05:32:03;1999.90;;;999.90;;
23594;SDS011;11975;47.674;9.472;2023-07-28T05:34:29;1999.90;;;999.90;;
23594;SDS011;11975;47.674;9.472;2023-07-28T05:36:55;1999.90;;;999.90;;
23594;SDS011;11975;47.674;9.472;2023-07-28T05:39:21;1999.90;;;999.90;;
23594;SDS011;11975;47.674;9.472;2023-07-28T05:41:47;1999.90;;;999.90;;
23594;SDS011;11975;47.674;9.472;2023-07-28T05:44:14;1999.90;;;999.90;;
23594;SDS011;11975;47.674;9.472;2023-07-28T05:46:40;1999.90;;;999.90;;
23594;SDS011;11975;47.674;9.472;2023-07-28T05:49:06;1999.90;;;999.90;;
23594;SDS011;11975;47.674;9.472;2023-07-28T05:51:32;1999.90;;;999.90;;
23594;SDS011;11975;47.674;9.472;2023-07-28T05:53:57;1999.90;;;999.90;;
23594;SDS011;11975;47.674;9.472;2023-07-28T05:56:23;1999.90;;;999.90;;
23594;SDS011;11975;47.674;9.472;2023-07-28T05:58:49;1999.90;;;999.90;;
23594;SDS011;11975;47.674;9.472;2023-07-28T06:01:16;1999.90;;;999.90;;
23594;SDS011;11975;47.674;9.472;2023-07-28T06:03:42;1999.90;;;999.90;;
23594;SDS011;11975;47.674;9.472;2023-07-28T06:06:08;1999.90;;;999.90;;
23594;SDS011;11975;47.674;9.472;2023-07-28T06:08:34;1999.90;;;999.90;;
23594;SDS011;11975;47.674;9.472;2023-07-28T06:11:03;1999.90;;;999.90;;
23594;SDS011;11975;47.674;9.472;2023-07-28T06:13:30;1999.90;;;999.90;;
23594;SDS011;11975;47.674;9.472;2023-07-28T06:15:56;1999.90;;;999.90;;
23594;SDS011;11975;47.674;9.472;2023-07-28T06:18:24;1999.90;;;999.90;;
23594;SDS011;11975;47.674;9.472;2023-07-28T06:20:50;1999.90;;;999.90;;
23594;SDS011;11975;47.674;9.472;2023-07-28T06:23:16;1999.90;;;999.90;;
23594;SDS011;11975;47.674;9.472;2023-07-28T06:25:42;1999.90;;;999.90;;
23594;SDS011;11975;47.674;9.472;2023-07-28T06:28:10;1999.90;;;999.90;;
23594;SDS011;11975;47.674;9.472;2023-07-28T06:30:37;1999.90;;;999.90;;
23594;SDS011;11975;47.674;9.472;2023-07-28T06:33:04;1999.90;;;999.90;;
23594;SDS011;11975;47.674;9.472;2023-07-28T06:35:32;1999.90;;;999.90;;
23594;SDS011;11975;47.674;9.472;2023-07-28T06:37:59;1999.90;;;999.90;;
23594;SDS011;11975;47.674;9.472;2023-07-28T06:40:25;1999.90;;;999.90;;
23594;SDS011;11975;47.674;9.472;2023-07-28T06:42:51;1999.90;;;999.90;;
23594;SDS011;11975;47.674;9.472;2023-07-28T06:45:17;1999.90;;;999.90;;
23594;SDS011;11975;47.674;9.472;2023-07-28T06:47:43;1999.90;;;999.90;;
23594;SDS011;11975;47.674;9.472;2023-07-28T06:50:10;1999.90;;;999.90;;
23594;SDS011;11975;47.674;9.472;2023-07-28T06:52:36;1999.90;;;999.90;;
23594;SDS011;11975;47.674;9.472;2023-07-28T06:55:03;1999.90;;;999.90;;
23594;SDS011;11975;47.674;9.472;2023-07-28T06:57:29;1999.90;;;999.90;;
23594;SDS011;11975;47.674;9.472;2023-07-28T06:59:56;1999.90;;;999.90;;
23594;SDS011;11975;47.674;9.472;2023-07-28T07:02:22;1999.90;;;999.90;;
23594;SDS011;11975;47.674;9.472;2023-07-28T07:04:48;1999.90;;;999.90;;
23594;SDS011;11975;47.674;9.472;2023-07-28T07:07:14;1999.90;;;999.90;;
23594;SDS011;11975;47.674;9.472;2023-07-28T07:09:40;1999.90;;;999.90;;
23594;SDS011;11975;47.674;9.472;2023-07-28T07:12:07;1999.90;;;999.90;;
23594;SDS011;11975;47.674;9.472;2023-07-28T07:14:34;1999.90;;;999.90;;
23594;SDS011;11975;47.674;9.472;2023-07-28T07:17:00;1999.90;;;999.90;;
23594;SDS011;11975;47.674;9.472;2023-07-28T07:19:27;1999.90;;;999.90;;
23594;SDS011;11975;47.674;9.472;2023-07-28T07:21:53;1999.90;;;999.90;;
23594;SDS011;11975;47.674;9.472;2023-07-28T07:24:19;1999.90;;;999.90;;
23594;SDS011;11975;47.674;9.472;2023-07-28T07:26:45;1999.90;;;999.90;;
23594;SDS011;11975;47.674;9.472;2023-07-28T07:29:11;1999.90;;;999.90;;
23594;SDS011;11975;47.674;9.472;2023-07-28T07:31:37;1999.90;;;999.90;;
23594;SDS011;11975;47.674;9.472;2023-07-28T07:34:03;1999.90;;;999.90;;
23594;SDS011;11975;47.674;9.472;2023-07-28T07:36:29;1999.90;;;999.90;;
23594;SDS011;11975;47.674;9.472;2023-07-28T07:38:55;1999.90;;;999.90;;
23594;SDS011;11975;47.674;9.472;2023-07-28T07:41:21;1999.90;;;999.90;;
23594;SDS011;11975;47.674;9.472;2023-07-28T07:43:48;1999.90;;;999.90;;
23594;SDS011;11975;47.674;9.472;2023-07-28T07:46:15;1999.90;;;999.90;;
23594;SDS011;11975;47.674;9.472;2023-07-28T07:48:41;1999.90;;;999.90;;
23594;SDS011;11975;47.674;9.472;2023-07-28T07:51:08;1999.90;;;999.90;;
23594;SDS011;11975;47.674;9.472;2023-07-28T07:53:34;1999.90;;;999.90;;
23594;SDS011;11975;47.674;9.472;2023-07-28T07:56:02;1999.90;;;999.90;;
23594;SDS011;11975;47.674;9.472;2023-07-28T07:58:29;1999.90;;;999.90;;
23594;SDS011;11975;47.674;9.472;2023-07-28T08:00:55;1999.90;;;999.90;;
23594;SDS011;11975;47.674;9.472;2023-07-28T08:03:21;1999.90;;;999.90;;
23594;SDS011;11975;47.674;9.472;2023-07-28T08:05:47;1999.90;;;999.90;;
23594;SDS011;11975;47.674;9.472;2023-07-28T08:08:13;1999.90;;;999.90;;
23594;SDS011;11975;47.674;9.472;2023-07-28T08:10:43;1999.90;;;999.90;;
23594;SDS011;11975;47.674;9.472;2023-07-28T08:13:09;1999.90;;;999.90;;
23594;SDS011;11975;47.674;9.472;2023-07-28T08:15:35;1999.90;;;999.90;;
23594;SDS011;11975;47.674;9.472;2023-07-28T08:18:01;21.37;;;20.03;;
23594;SDS011;11975;47.674;9.472;2023-07-28T08:20:27;20.25;;;19.08;;
23594;SDS011;11975;47.674;9.472;2023-07-28T08:22:53;19.48;;;18.38;;
23594;SDS011;11975;47.674;9.472;2023-07-28T08:25:19;19.57;;;18.37;;
23594;SDS011;11975;47.674;9.472;2023-07-28T08:27:45;19.80;;;18.60;;
23594;SDS011;11975;47.674;9.472;2023-07-28T08:30:12;19.20;;;18.10;;
23594;SDS011;11975;47.674;9.472;2023-07-28T08:32:38;19.33;;;18.23;;
23594;SDS011;11975;47.674;9.472;2023-07-28T08:35:04;19.30;;;18.20;;
23594;SDS011;11975;47.674;9.472;2023-07-28T08:37:30;19.42;;;18.33;;
23594;SDS011;11975;47.674;9.472;2023-07-28T08:39:56;18.23;;;17.23;;
23594;SDS011;11975;47.674;9.472;2023-07-28T08:42:22;18.97;;;17.77;;
23594;SDS011;11975;47.674;9.472;2023-07-28T08:44:48;18.67;;;17.57;;
23594;SDS011;11975;47.674;9.472;2023-07-28T08:47:17;19.70;;;18.50;;
23594;SDS011;11975;47.674;9.472;2023-07-28T08:52:10;19.50;;;18.40;;
23594;SDS011;11975;47.674;9.472;2023-07-28T08:54:36;20.30;;;18.75;;
23594;SDS011;11975;47.674;9.472;2023-07-28T08:57:02;18.60;;;17.50;;
23594;SDS011;11975;47.674;9.472;2023-07-28T08:59:29;18.90;;;17.80;;
23594;SDS011;11975;47.674;9.472;2023-07-28T09:01:56;18.33;;;17.33;;
23594;SDS011;11975;47.674;9.472;2023-07-28T09:04:23;19.50;;;18.38;;
23594;SDS011;11975;47.674;9.472;2023-07-28T09:06:50;18.50;;;17.40;;
23594;SDS011;11975;47.674;9.472;2023-07-28T09:09:17;19.52;;;18.25;;
23594;SDS011;11975;47.674;9.472;2023-07-28T09:11:45;18.58;;;17.58;;
23594;SDS011;11975;47.674;9.472;2023-07-28T09:14:18;23.13;;;21.20;;
23594;SDS011;11975;47.674;9.472;2023-07-28T09:16:45;18.95;;;17.85;;
23594;SDS011;11975;47.674;9.472;2023-07-28T09:19:12;19.52;;;18.23;;
23594;SDS011;11975;47.674;9.472;2023-07-28T09:21:39;20.55;;;19.23;;
23594;SDS011;11975;47.674;9.472;2023-07-28T09:24:08;20.10;;;19.00;;
23594;SDS011;11975;47.674;9.472;2023-07-28T09:26:37;19.65;;;18.55;;
23594;SDS011;11975;47.674;9.472;2023-07-28T09:31:42;19.70;;;18.60;;
23594;SDS011;11975;47.674;9.472;2023-07-28T09:34:09;19.10;;;18.00;;
23594;SDS011;11975;47.674;9.472;2023-07-28T09:36:35;20.02;;;18.92;;
23594;SDS011;11975;47.674;9.472;2023-07-28T09:39:04;19.75;;;18.65;;
23594;SDS011;11975;47.674;9.472;2023-07-28T09:41:36;22.20;;;20.90;;
23594;SDS011;11975;47.674;9.472;2023-07-28T09:44:04;22.60;;;21.30;;
23594;SDS011;11975;47.674;9.472;2023-07-28T09:46:34;22.02;;;20.80;;
23594;SDS011;11975;47.674;9.472;2023-07-28T09:49:04;22.80;;;21.50;;
23594;SDS011;11975;47.674;9.472;2023-07-28T09:51:31;22.42;;;21.13;;
23594;SDS011;11975;47.674;9.472;2023-07-28T09:54:01;21.35;;;20.13;;
23594;SDS011;11975;47.674;9.472;2023-07-28T09:56:30;20.80;;;19.60;;
23594;SDS011;11975;47.674;9.472;2023-07-28T09:58:57;20.98;;;19.77;;
23594;SDS011;11975;47.674;9.472;2023-07-28T10:01:23;20.40;;;19.23;;
23594;SDS011;11975;47.674;9.472;2023-07-28T10:03:50;21.98;;;20.65;;
23594;SDS011;11975;47.674;9.472;2023-07-28T10:06:16;21.08;;;19.88;;
23594;SDS011;11975;47.674;9.472;2023-07-28T10:08:43;23.10;;;21.70;;
23594;SDS011;11975;47.674;9.472;2023-07-28T10:11:10;22.60;;;21.30;;
23594;SDS011;11975;47.674;9.472;2023-07-28T10:13:40;22.67;;;21.38;;
23594;SDS011;11975;47.674;9.472;2023-07-28T10:16:10;22.95;;;21.65;;
23594;SDS011;11975;47.674;9.472;2023-07-28T10:21:05;20.10;;;19.00;;
23594;SDS011;11975;47.674;9.472;2023-07-28T10:23:34;20.85;;;19.63;;
23594;SDS011;11975;47.674;9.472;2023-07-28T10:26:01;20.13;;;19.02;;
23594;SDS011;11975;47.674;9.472;2023-07-28T10:30:58;19.80;;;18.70;;
23594;SDS011;11975;47.674;9.472;2023-07-28T10:35:57;19.23;;;18.13;;
23594;SDS011;11975;47.674;9.472;2023-07-28T10:38:27;20.30;;;19.05;;
23594;SDS011;11975;47.674;9.472;2023-07-28T10:41:04;19.52;;;18.42;;
23594;SDS011;11975;47.674;9.472;2023-07-28T10:43:31;515.50;;;264.60;;
23594;SDS011;11975;47.674;9.472;2023-07-28T10:45:57;19.97;;;18.87;;
23594;SDS011;11975;47.674;9.472;2023-07-28T10:48:23;19.73;;;18.53;;
23594;SDS011;11975;47.674;9.472;2023-07-28T10:50:49;19.17;;;18.07;;
23594;SDS011;11975;47.674;9.472;2023-07-28T10:53:15;19.52;;;18.42;;
23594;SDS011;11975;47.674;9.472;2023-07-28T10:55:41;19.87;;;18.77;;
23594;SDS011;11975;47.674;9.472;2023-07-28T10:58:07;20.47;;;19.30;;
23594;SDS011;11975;47.674;9.472;2023-07-28T11:00:33;20.47;;;19.17;;
23594;SDS011;11975;47.674;9.472;2023-07-28T11:02:59;21.30;;;20.07;;
23594;SDS011;11975;47.674;9.472;2023-07-28T11:05:28;21.07;;;19.87;;
23594;SDS011;11975;47.674;9.472;2023-07-28T11:07:56;21.17;;;19.98;;
23594;SDS011;11975;47.674;9.472;2023-07-28T11:10:23;21.67;;;20.48;;
23594;SDS011;11975;47.674;9.472;2023-07-28T11:12:49;21.67;;;20.48;;
23594;SDS011;11975;47.674;9.472;2023-07-28T11:15:18;22.55;;;21.25;;
23594;SDS011;11975;47.674;9.472;2023-07-28T11:17:48;21.83;;;20.60;;
23594;SDS011;11975;47.674;9.472;2023-07-28T11:22:44;21.42;;;20.23;;
23594;SDS011;11975;47.674;9.472;2023-07-28T11:25:31;20.42;;;19.33;;
23594;SDS011;11975;47.674;9.472;2023-07-28T11:28:00;20.98;;;19.77;;
23594;SDS011;11975;47.674;9.472;2023-07-28T11:30:32;20.20;;;19.10;;
23594;SDS011;11975;47.674;9.472;2023-07-28T11:32:59;20.35;;;19.25;;
23594;SDS011;11975;47.674;9.472;2023-07-28T11:35:25;19.83;;;18.73;;
23594;SDS011;11975;47.674;9.472;2023-07-28T11:37:51;19.38;;;18.27;;
23594;SDS011;11975;47.674;9.472;2023-07-28T11:40:22;20.20;;;18.90;;
23594;SDS011;11975;47.674;9.472;2023-07-28T11:42:51;19.92;;;18.83;;
23594;SDS011;11975;47.674;9.472;2023-07-28T11:45:19;19.48;;;18.38;;
23594;SDS011;11975;47.674;9.472;2023-07-28T11:50:29;20.45;;;18.85;;
23594;SDS011;11975;47.674;9.472;2023-07-28T11:52:56;19.92;;;18.65;;
23594;SDS011;11975;47.674;9.472;2023-07-28T11:57:49;20.17;;;18.98;;
23594;SDS011;11975;47.674;9.472;2023-07-28T12:00:15;19.13;;;18.05;;
23594;SDS011;11975;47.674;9.472;2023-07-28T12:02:42;18.80;;;17.75;;
23594;SDS011;11975;47.674;9.472;2023-07-28T12:05:12;18.50;;;17.50;;
23594;SDS011;11975;47.674;9.472;2023-07-28T12:07:38;18.65;;;17.65;;
23594;SDS011;11975;47.674;9.472;2023-07-28T12:10:05;19.55;;;18.13;;
23594;SDS011;11975;47.674;9.472;2023-07-28T12:12:41;19.92;;;18.63;;
23594;SDS011;11975;47.674;9.472;2023-07-28T12:20:34;19.40;;;18.30;;
23594;SDS011;11975;47.674;9.472;2023-07-28T12:23:01;19.60;;;18.50;;
23594;SDS011;11975;47.674;9.472;2023-07-28T12:25:27;19.83;;;18.73;;
23594;SDS011;11975;47.674;9.472;2023-07-28T12:27:53;19.88;;;18.67;;
23594;SDS011;11975;47.674;9.472;2023-07-28T12:30:18;18.88;;;17.77;;
23594;SDS011;11975;47.674;9.472;2023-07-28T12:32:45;18.60;;;17.50;;
23594;SDS011;11975;47.674;9.472;2023-07-28T12:37:37;19.02;;;17.92;;
23594;SDS011;11975;47.674;9.472;2023-07-28T12:40:03;18.70;;;17.70;;
23594;SDS011;11975;47.674;9.472;2023-07-28T12:42:32;19.35;;;18.15;;
23594;SDS011;11975;47.674;9.472;2023-07-28T12:44:58;18.58;;;17.50;;
23594;SDS011;11975;47.674;9.472;2023-07-28T12:47:24;18.45;;;17.45;;
23594;SDS011;11975;47.674;9.472;2023-07-28T12:49:50;18.25;;;17.25;;
23594;SDS011;11975;47.674;9.472;2023-07-28T12:52:16;18.90;;;17.90;;
23594;SDS011;11975;47.674;9.472;2023-07-28T12:54:41;18.80;;;17.70;;
23594;SDS011;11975;47.674;9.472;2023-07-28T12:57:08;19.40;;;18.30;;
23594;SDS011;11975;47.674;9.472;2023-07-28T12:59:36;18.42;;;17.33;;
23594;SDS011;11975;47.674;9.472;2023-07-28T13:02:02;18.98;;;17.88;;
23594;SDS011;11975;47.674;9.472;2023-07-28T13:04:28;18.90;;;17.80;;
23594;SDS011;11975;47.674;9.472;2023-07-28T13:06:54;19.17;;;18.08;;
23594;SDS011;11975;47.674;9.472;2023-07-28T13:09:20;19.65;;;18.55;;
23594;SDS011;11975;47.674;9.472;2023-07-28T13:11:46;18.73;;;17.63;;
23594;SDS011;11975;47.674;9.472;2023-07-28T13:14:12;19.58;;;18.40;;
23594;SDS011;11975;47.674;9.472;2023-07-28T13:16:38;19.00;;;17.90;;
23594;SDS011;11975;47.674;9.472;2023-07-28T13:19:04;19.15;;;18.05;;
23594;SDS011;11975;47.674;9.472;2023-07-28T13:21:31;19.50;;;18.40;;
23594;SDS011;11975;47.674;9.472;2023-07-28T13:23:57;19.77;;;18.58;;
23594;SDS011;11975;47.674;9.472;2023-07-28T13:26:23;19.83;;;18.73;;
23594;SDS011;11975;47.674;9.472;2023-07-28T13:28:50;19.48;;;18.38;;
23594;SDS011;11975;47.674;9.472;2023-07-28T13:31:17;19.80;;;18.70;;
23594;SDS011;11975;47.674;9.472;2023-07-28T13:33:43;20.23;;;19.02;;
23594;SDS011;11975;47.674;9.472;2023-07-28T13:36:09;19.30;;;18.20;;
23594;SDS011;11975;47.674;9.472;2023-07-28T13:38:36;19.98;;;18.50;;
23594;SDS011;11975;47.674;9.472;2023-07-28T13:41:03;19.40;;;18.30;;
23594;SDS011;11975;47.674;9.472;2023-07-28T13:43:32;19.48;;;18.38;;
23594;SDS011;11975;47.674;9.472;2023-07-28T13:46:00;19.80;;;18.63;;
23594;SDS011;11975;47.674;9.472;2023-07-28T13:48:26;20.30;;;19.08;;
23594;SDS011;11975;47.674;9.472;2023-07-28T13:50:52;18.80;;;17.77;;
23594;SDS011;11975;47.674;9.472;2023-07-28T13:53:18;19.17;;;18.08;;
23594;SDS011;11975;47.674;9.472;2023-07-28T13:55:44;18.73;;;17.63;;
23594;SDS011;11975;47.674;9.472;2023-07-28T13:58:10;19.48;;;18.38;;
23594;SDS011;11975;47.674;9.472;2023-07-28T14:00:35;20.02;;;18.73;;
23594;SDS011;11975;47.674;9.472;2023-07-28T14:03:01;19.45;;;18.35;;
23594;SDS011;11975;47.674;9.472;2023-07-28T14:05:27;19.58;;;18.48;;
23594;SDS011;11975;47.674;9.472;2023-07-28T14:07:53;20.35;;;19.25;;
23594;SDS011;11975;47.674;9.472;2023-07-28T14:10:19;20.85;;;19.65;;
23594;SDS011;11975;47.674;9.472;2023-07-28T14:12:45;20.70;;;19.48;;
23594;SDS011;11975;47.674;9.472;2023-07-28T14:15:11;20.20;;;19.07;;
23594;SDS011;11975;47.674;9.472;2023-07-28T14:17:37;21.27;;;19.97;;
23594;SDS011;11975;47.674;9.472;2023-07-28T14:20:03;20.40;;;19.20;;
23594;SDS011;11975;47.674;9.472;2023-07-28T14:22:29;20.63;;;19.42;;
23594;SDS011;11975;47.674;9.472;2023-07-28T14:24:55;20.43;;;19.27;;
23594;SDS011;11975;47.674;9.472;2023-07-28T14:27:21;20.30;;;19.17;;
23594;SDS011;11975;47.674;9.472;2023-07-28T14:29:47;21.20;;;19.90;;